sensor_id;sensor_type;location;lat;lon;timestamp;temperature;humidity
39067;DHT22;24821;51.988;6.020;2022-07-22T00:02:11;17.70;99.90
39067;DHT22;24821;51.988;6.020;2022-07-22T00:04:37;17.70;99.90
39067;DHT22;24821;51.988;6.020;2022-07-22T00:07:03;17.70;99.90
39067;DHT22;24821;51.988;6.020;2022-07-22T00:09:28;17.70;99.90
39067;DHT22;24821;51.988;6.020;2022-07-22T00:11:54;17.60;99.90
39067;DHT22;24821;51.988;6.020;2022-07-22T00:14:20;17.60;99.90
39067;DHT22;24821;51.988;6.020;2022-07-22T00:16:45;17.60;99.90
39067;DHT22;24821;51.988;6.020;2022-07-22T00:19:11;17.60;99.90
39067;DHT22;24821;51.988;6.020;2022-07-22T00:21:37;17.60;99.90
39067;DHT22;24821;51.988;6.020;2022-07-22T00:24:03;17.50;99.90
39067;DHT22;24821;51.988;6.020;2022-07-22T00:26:29;17.50;99.90
39067;DHT22;24821;51.988;6.020;2022-07-22T00:28:54;17.50;99.90
39067;DHT22;24821;51.988;6.020;2022-07-22T00:31:20;17.60;99.90
39067;DHT22;24821;51.988;6.020;2022-07-22T00:33:45;17.50;99.90
39067;DHT22;24821;51.988;6.020;2022-07-22T00:36:11;17.50;99.90
39067;DHT22;24821;51.988;6.020;2022-07-22T00:38:38;17.50;99.90
39067;DHT22;24821;51.988;6.020;2022-07-22T00:41:04;17.50;99.90
39067;DHT22;24821;51.988;6.020;2022-07-22T00:46:16;17.60;99.90
39067;DHT22;24821;51.988;6.020;2022-07-22T00:48:42;17.50;99.90
39067;DHT22;24821;51.988;6.020;2022-07-22T00:51:08;17.50;99.90
39067;DHT22;24821;51.988;6.020;2022-07-22T00:53:34;17.50;99.90
39067;DHT22;24821;51.988;6.020;2022-07-22T00:56:01;17.50;99.90
39067;DHT22;24821;51.988;6.020;2022-07-22T00:58:27;17.50;99.90
39067;DHT22;24821;51.988;6.020;2022-07-22T01:00:53;17.50;99.90
39067;DHT22;24821;51.988;6.020;2022-07-22T01:03:18;17.50;99.90
39067;DHT22;24821;51.988;6.020;2022-07-22T01:05:44;17.50;99.90
39067;DHT22;24821;51.988;6.020;2022-07-22T01:08:09;17.50;99.90
39067;DHT22;24821;51.988;6.020;2022-07-22T01:10:35;17.50;99.90
39067;DHT22;24821;51.988;6.020;2022-07-22T01:13:01;17.50;99.90
39067;DHT22;24821;51.988;6.020;2022-07-22T01:15:26;17.40;99.90
39067;DHT22;24821;51.988;6.020;2022-07-22T01:17:52;17.40;99.90
39067;DHT22;24821;51.988;6.020;2022-07-22T01:20:18;17.40;99.90
39067;DHT22;24821;51.988;6.020;2022-07-22T01:22:43;17.40;99.90
39067;DHT22;24821;51.988;6.020;2022-07-22T01:25:10;17.50;99.90
39067;DHT22;24821;51.988;6.020;2022-07-22T01:27:36;17.50;99.90
39067;DHT22;24821;51.988;6.020;2022-07-22T01:30:22;17.50;99.90
39067;DHT22;24821;51.988;6.020;2022-07-22T01:33:19;17.60;99.90
39067;DHT22;24821;51.988;6.020;2022-07-22T01:36:08;17.60;99.90
39067;DHT22;24821;51.988;6.020;2022-07-22T01:42:06;17.60;99.90
39067;DHT22;24821;51.988;6.020;2022-07-22T01:44:33;17.60;99.90
39067;DHT22;24821;51.988;6.020;2022-07-22T01:46:59;17.50;99.90
39067;DHT22;24821;51.988;6.020;2022-07-22T01:49:25;17.60;99.90
39067;DHT22;24821;51.988;6.020;2022-07-22T01:51:50;17.60;99.90
39067;DHT22;24821;51.988;6.020;2022-07-22T01:54:16;17.60;99.90
39067;DHT22;24821;51.988;6.020;2022-07-22T01:56:41;17.70;99.90
39067;DHT22;24821;51.988;6.020;2022-07-22T01:59:07;17.60;99.90
39067;DHT22;24821;51.988;6.020;2022-07-22T02:01:33;17.60;99.90
39067;DHT22;24821;51.988;6.020;2022-07-22T02:03:58;17.60;99.90
39067;DHT22;24821;51.988;6.020;2022-07-22T02:06:24;17.70;99.90
39067;DHT22;24821;51.988;6.020;2022-07-22T02:08:49;17.70;99.90
39067;DHT22;24821;51.988;6.020;2022-07-22T02:11:15;17.70;99.90
39067;DHT22;24821;51.988;6.020;2022-07-22T02:13:41;17.70;99.90
39067;DHT22;24821;51.988;6.020;2022-07-22T02:16:06;17.80;99.90
39067;DHT22;24821;51.988;6.020;2022-07-22T02:18:32;17.70;99.90
39067;DHT22;24821;51.988;6.020;2022-07-22T02:20:57;17.70;99.90
39067;DHT22;24821;51.988;6.020;2022-07-22T02:23:23;17.80;99.90
39067;DHT22;24821;51.988;6.020;2022-07-22T02:25:48;17.70;99.90
39067;DHT22;24821;51.988;6.020;2022-07-22T02:28:14;17.70;99.90
39067;DHT22;24821;51.988;6.020;2022-07-22T02:30:40;17.70;99.90
39067;DHT22;24821;51.988;6.020;2022-07-22T02:33:05;17.70;99.90
39067;DHT22;24821;51.988;6.020;2022-07-22T02:35:31;17.70;99.90
39067;DHT22;24821;51.988;6.020;2022-07-22T02:37:57;17.70;99.90
39067;DHT22;24821;51.988;6.020;2022-07-22T02:40:22;17.70;99.90
39067;DHT22;24821;51.988;6.020;2022-07-22T02:42:48;17.80;99.90
39067;DHT22;24821;51.988;6.020;2022-07-22T02:45:13;17.80;99.90
39067;DHT22;24821;51.988;6.020;2022-07-22T02:47:50;17.70;99.90
39067;DHT22;24821;51.988;6.020;2022-07-22T02:50:16;17.70;99.90
39067;DHT22;24821;51.988;6.020;2022-07-22T02:52:42;17.70;99.90
39067;DHT22;24821;51.988;6.020;2022-07-22T02:55:08;17.80;99.90
39067;DHT22;24821;51.988;6.020;2022-07-22T02:57:34;17.80;99.90
39067;DHT22;24821;51.988;6.020;2022-07-22T02:59:59;17.70;99.90
39067;DHT22;24821;51.988;6.020;2022-07-22T03:02:25;17.70;99.90
39067;DHT22;24821;51.988;6.020;2022-07-22T03:04:51;17.80;99.90
39067;DHT22;24821;51.988;6.020;2022-07-22T03:07:16;17.70;99.90
39067;DHT22;24821;51.988;6.020;2022-07-22T03:09:42;17.80;99.90
39067;DHT22;24821;51.988;6.020;2022-07-22T03:12:08;17.80;99.90
39067;DHT22;24821;51.988;6.020;2022-07-22T03:14:34;17.80;99.90
39067;DHT22;24821;51.988;6.020;2022-07-22T03:16:59;17.80;99.90
39067;DHT22;24821;51.988;6.020;2022-07-22T03:19:25;17.80;99.90
39067;DHT22;24821;51.988;6.020;2022-07-22T03:21:50;17.80;99.90
39067;DHT22;24821;51.988;6.020;2022-07-22T03:24:16;17.80;99.90
39067;DHT22;24821;51.988;6.020;2022-07-22T03:26:42;17.80;99.90
39067;DHT22;24821;51.988;6.020;2022-07-22T03:29:07;17.80;99.90
39067;DHT22;24821;51.988;6.020;2022-07-22T03:31:33;17.70;99.90
39067;DHT22;24821;51.988;6.020;2022-07-22T03:33:58;17.80;99.90
39067;DHT22;24821;51.988;6.020;2022-07-22T03:36:33;17.80;99.90
39067;DHT22;24821;51.988;6.020;2022-07-22T03:39:06;17.80;99.90
39067;DHT22;24821;51.988;6.020;2022-07-22T03:48:41;17.70;99.90
39067;DHT22;24821;51.988;6.020;2022-07-22T03:51:07;17.70;99.90
39067;DHT22;24821;51.988;6.020;2022-07-22T03:53:32;17.70;99.90
39067;DHT22;24821;51.988;6.020;2022-07-22T03:55:59;17.70;99.90
39067;DHT22;24821;51.988;6.020;2022-07-22T03:58:25;17.70;99.90
39067;DHT22;24821;51.988;6.020;2022-07-22T04:00:52;17.70;99.90
39067;DHT22;24821;51.988;6.020;2022-07-22T04:03:17;17.70;99.90
39067;DHT22;24821;51.988;6.020;2022-07-22T04:05:43;17.70;99.90
39067;DHT22;24821;51.988;6.020;2022-07-22T04:08:09;17.70;99.90
39067;DHT22;24821;51.988;6.020;2022-07-22T04:10:34;17.70;99.90
39067;DHT22;24821;51.988;6.020;2022-07-22T04:13:00;17.70;99.90
39067;DHT22;24821;51.988;6.020;2022-07-22T04:15:26;17.70;99.90
39067;DHT22;24821;51.988;6.020;2022-07-22T04:17:52;17.60;99.90
39067;DHT22;24821;51.988;6.020;2022-07-22T04:20:17;17.60;99.90
39067;DHT22;24821;51.988;6.020;2022-07-22T04:22:43;17.60;99.90
39067;DHT22;24821;51.988;6.020;2022-07-22T04:25:08;17.60;99.90
39067;DHT22;24821;51.988;6.020;2022-07-22T04:27:35;17.50;99.90
39067;DHT22;24821;51.988;6.020;2022-07-22T04:30:01;17.50;99.90
39067;DHT22;24821;51.988;6.020;2022-07-22T04:32:27;17.50;99.90
39067;DHT22;24821;51.988;6.020;2022-07-22T04:34:52;17.50;99.90
39067;DHT22;24821;51.988;6.020;2022-07-22T04:37:18;17.50;99.90
39067;DHT22;24821;51.988;6.020;2022-07-22T04:39:43;17.50;99.90
39067;DHT22;24821;51.988;6.020;2022-07-22T04:42:09;17.50;99.90
39067;DHT22;24821;51.988;6.020;2022-07-22T04:44:34;17.50;99.90
39067;DHT22;24821;51.988;6.020;2022-07-22T04:47:00;17.50;99.90
39067;DHT22;24821;51.988;6.020;2022-07-22T04:49:25;17.50;99.90
39067;DHT22;24821;51.988;6.020;2022-07-22T04:51:51;17.50;99.90
39067;DHT22;24821;51.988;6.020;2022-07-22T04:54:17;17.50;99.90
39067;DHT22;24821;51.988;6.020;2022-07-22T04:56:43;17.50;99.90
39067;DHT22;24821;51.988;6.020;2022-07-22T04:59:08;17.50;99.90
39067;DHT22;24821;51.988;6.020;2022-07-22T05:01:34;17.60;99.90
39067;DHT22;24821;51.988;6.020;2022-07-22T05:04:00;17.60;99.90
39067;DHT22;24821;51.988;6.020;2022-07-22T05:06:25;17.60;99.90
39067;DHT22;24821;51.988;6.020;2022-07-22T05:08:51;17.60;99.90
39067;DHT22;24821;51.988;6.020;2022-07-22T05:11:16;17.60;99.90
39067;DHT22;24821;51.988;6.020;2022-07-22T05:13:42;17.60;99.90
39067;DHT22;24821;51.988;6.020;2022-07-22T05:16:07;17.60;99.90
39067;DHT22;24821;51.988;6.020;2022-07-22T05:18:33;17.60;99.90
39067;DHT22;24821;51.988;6.020;2022-07-22T05:21:00;17.60;99.90
39067;DHT22;24821;51.988;6.020;2022-07-22T05:23:25;17.60;99.90
39067;DHT22;24821;51.988;6.020;2022-07-22T05:25:51;17.60;99.90
39067;DHT22;24821;51.988;6.020;2022-07-22T05:28:17;17.60;99.90
39067;DHT22;24821;51.988;6.020;2022-07-22T05:30:42;17.70;99.90
39067;DHT22;24821;51.988;6.020;2022-07-22T05:33:08;17.70;99.90
39067;DHT22;24821;51.988;6.020;2022-07-22T05:35:33;17.70;99.90
39067;DHT22;24821;51.988;6.020;2022-07-22T05:37:59;17.80;99.90
39067;DHT22;24821;51.988;6.020;2022-07-22T05:40:24;17.80;99.90
39067;DHT22;24821;51.988;6.020;2022-07-22T05:42:50;17.80;99.90
39067;DHT22;24821;51.988;6.020;2022-07-22T05:45:15;17.90;99.90
39067;DHT22;24821;51.988;6.020;2022-07-22T05:47:41;17.90;99.90
39067;DHT22;24821;51.988;6.020;2022-07-22T05:50:07;18.00;99.90
39067;DHT22;24821;51.988;6.020;2022-07-22T05:52:35;18.00;99.90
39067;DHT22;24821;51.988;6.020;2022-07-22T05:55:02;18.00;99.90
39067;DHT22;24821;51.988;6.020;2022-07-22T05:57:27;18.00;99.90
39067;DHT22;24821;51.988;6.020;2022-07-22T05:59:53;18.10;99.90
39067;DHT22;24821;51.988;6.020;2022-07-22T06:02:19;18.10;99.90
39067;DHT22;24821;51.988;6.020;2022-07-22T06:04:44;18.10;99.90
39067;DHT22;24821;51.988;6.020;2022-07-22T06:07:10;18.20;99.90
39067;DHT22;24821;51.988;6.020;2022-07-22T06:09:35;18.10;99.90
39067;DHT22;24821;51.988;6.020;2022-07-22T06:12:01;18.20;99.90
39067;DHT22;24821;51.988;6.020;2022-07-22T06:14:26;18.20;99.90
39067;DHT22;24821;51.988;6.020;2022-07-22T06:16:52;18.20;99.90
39067;DHT22;24821;51.988;6.020;2022-07-22T06:19:18;18.20;99.90
39067;DHT22;24821;51.988;6.020;2022-07-22T06:21:43;18.30;99.90
39067;DHT22;24821;51.988;6.020;2022-07-22T06:24:09;18.30;99.90
39067;DHT22;24821;51.988;6.020;2022-07-22T06:26:34;18.30;99.90
39067;DHT22;24821;51.988;6.020;2022-07-22T06:29:00;18.30;99.90
39067;DHT22;24821;51.988;6.020;2022-07-22T06:31:25;18.30;99.90
39067;DHT22;24821;51.988;6.020;2022-07-22T06:33:51;18.40;99.90
39067;DHT22;24821;51.988;6.020;2022-07-22T06:36:17;18.40;99.90
39067;DHT22;24821;51.988;6.020;2022-07-22T06:38:43;18.50;99.90
39067;DHT22;24821;51.988;6.020;2022-07-22T06:41:09;18.50;99.90
39067;DHT22;24821;51.988;6.020;2022-07-22T06:43:35;18.50;99.90
39067;DHT22;24821;51.988;6.020;2022-07-22T06:46:01;18.50;99.90
39067;DHT22;24821;51.988;6.020;2022-07-22T06:48:26;18.60;99.90
39067;DHT22;24821;51.988;6.020;2022-07-22T06:50:52;18.60;99.90
39067;DHT22;24821;51.988;6.020;2022-07-22T06:53:18;18.70;99.90
39067;DHT22;24821;51.988;6.020;2022-07-22T06:55:43;18.70;99.90
39067;DHT22;24821;51.988;6.020;2022-07-22T06:58:09;18.80;99.90
39067;DHT22;24821;51.988;6.020;2022-07-22T07:00:34;18.80;99.90
39067;DHT22;24821;51.988;6.020;2022-07-22T07:03:00;18.80;99.90
39067;DHT22;24821;51.988;6.020;2022-07-22T07:05:26;18.80;99.90
39067;DHT22;24821;51.988;6.020;2022-07-22T07:07:54;18.90;99.90
39067;DHT22;24821;51.988;6.020;2022-07-22T07:10:20;19.00;99.90
39067;DHT22;24821;51.988;6.020;2022-07-22T07:12:46;19.00;99.90
39067;DHT22;24821;51.988;6.020;2022-07-22T07:15:11;19.00;99.90
39067;DHT22;24821;51.988;6.020;2022-07-22T07:17:37;19.10;99.90
39067;DHT22;24821;51.988;6.020;2022-07-22T07:20:04;19.20;99.90
39067;DHT22;24821;51.988;6.020;2022-07-22T07:22:29;19.20;99.90
39067;DHT22;24821;51.988;6.020;2022-07-22T07:24:55;19.30;99.90
39067;DHT22;24821;51.988;6.020;2022-07-22T07:27:21;19.40;99.80
39067;DHT22;24821;51.988;6.020;2022-07-22T07:29:46;19.50;99.40
39067;DHT22;24821;51.988;6.020;2022-07-22T07:32:12;19.50;99.40
39067;DHT22;24821;51.988;6.020;2022-07-22T07:34:37;19.70;99.50
39067;DHT22;24821;51.988;6.020;2022-07-22T07:37:03;19.70;99.40
39067;DHT22;24821;51.988;6.020;2022-07-22T07:39:29;19.80;99.10
39067;DHT22;24821;51.988;6.020;2022-07-22T07:41:55;19.80;98.90
39067;DHT22;24821;51.988;6.020;2022-07-22T07:44:20;19.90;98.80
39067;DHT22;24821;51.988;6.020;2022-07-22T07:46:46;20.00;98.60
39067;DHT22;24821;51.988;6.020;2022-07-22T07:49:12;20.10;98.50
39067;DHT22;24821;51.988;6.020;2022-07-22T07:51:37;20.20;98.70
39067;DHT22;24821;51.988;6.020;2022-07-22T07:54:03;20.20;98.20
39067;DHT22;24821;51.988;6.020;2022-07-22T07:56:29;20.30;97.90
39067;DHT22;24821;51.988;6.020;2022-07-22T07:58:54;20.30;98.00
39067;DHT22;24821;51.988;6.020;2022-07-22T08:01:20;20.30;97.90
39067;DHT22;24821;51.988;6.020;2022-07-22T08:03:45;20.30;97.70
39067;DHT22;24821;51.988;6.020;2022-07-22T08:06:11;20.30;97.60
39067;DHT22;24821;51.988;6.020;2022-07-22T08:08:36;20.30;97.90
39067;DHT22;24821;51.988;6.020;2022-07-22T08:11:03;20.30;97.70
39067;DHT22;24821;51.988;6.020;2022-07-22T08:13:28;20.40;97.30
39067;DHT22;24821;51.988;6.020;2022-07-22T08:15:54;20.40;97.30
39067;DHT22;24821;51.988;6.020;2022-07-22T08:18:19;20.40;97.40
39067;DHT22;24821;51.988;6.020;2022-07-22T08:20:45;20.40;97.30
39067;DHT22;24821;51.988;6.020;2022-07-22T08:23:11;20.40;97.20
39067;DHT22;24821;51.988;6.020;2022-07-22T08:25:36;20.50;97.00
39067;DHT22;24821;51.988;6.020;2022-07-22T08:28:02;20.50;96.80
39067;DHT22;24821;51.988;6.020;2022-07-22T08:30:28;20.50;96.90
39067;DHT22;24821;51.988;6.020;2022-07-22T08:32:54;20.50;97.00
39067;DHT22;24821;51.988;6.020;2022-07-22T08:35:20;20.50;96.90
39067;DHT22;24821;51.988;6.020;2022-07-22T08:37:46;20.50;96.90
39067;DHT22;24821;51.988;6.020;2022-07-22T08:40:14;20.50;96.90
39067;DHT22;24821;51.988;6.020;2022-07-22T08:42:41;20.50;97.00
39067;DHT22;24821;51.988;6.020;2022-07-22T08:45:08;20.50;97.30
39067;DHT22;24821;51.988;6.020;2022-07-22T08:47:34;20.50;97.20
39067;DHT22;24821;51.988;6.020;2022-07-22T08:50:00;20.60;97.00
39067;DHT22;24821;51.988;6.020;2022-07-22T08:52:26;20.70;96.80
39067;DHT22;24821;51.988;6.020;2022-07-22T08:54:52;20.80;96.30
39067;DHT22;24821;51.988;6.020;2022-07-22T08:57:18;20.80;95.30
39067;DHT22;24821;51.988;6.020;2022-07-22T08:59:55;20.80;95.80
39067;DHT22;24821;51.988;6.020;2022-07-22T09:02:22;21.00;95.80
39067;DHT22;24821;51.988;6.020;2022-07-22T09:05:00;21.00;95.10
39067;DHT22;24821;51.988;6.020;2022-07-22T09:07:32;21.00;95.40
39067;DHT22;24821;51.988;6.020;2022-07-22T09:10:00;21.10;95.30
39067;DHT22;24821;51.988;6.020;2022-07-22T09:12:26;21.20;94.80
39067;DHT22;24821;51.988;6.020;2022-07-22T09:14:58;21.30;94.30
39067;DHT22;24821;51.988;6.020;2022-07-22T09:17:30;21.50;94.60
39067;DHT22;24821;51.988;6.020;2022-07-22T09:19:58;21.60;92.90
39067;DHT22;24821;51.988;6.020;2022-07-22T09:22:42;21.70;93.50
39067;DHT22;24821;51.988;6.020;2022-07-22T09:25:28;21.90;93.80
39067;DHT22;24821;51.988;6.020;2022-07-22T09:30:34;22.10;92.60
39067;DHT22;24821;51.988;6.020;2022-07-22T09:33:01;22.20;93.00
39067;DHT22;24821;51.988;6.020;2022-07-22T09:35:27;22.30;92.80
39067;DHT22;24821;51.988;6.020;2022-07-22T09:38:01;22.30;92.40
39067;DHT22;24821;51.988;6.020;2022-07-22T09:40:32;22.40;92.20
39067;DHT22;24821;51.988;6.020;2022-07-22T09:43:02;22.30;91.90
39067;DHT22;24821;51.988;6.020;2022-07-22T09:45:30;22.40;92.00
39067;DHT22;24821;51.988;6.020;2022-07-22T09:47:57;22.30;91.70
39067;DHT22;24821;51.988;6.020;2022-07-22T09:50:28;22.20;91.70
39067;DHT22;24821;51.988;6.020;2022-07-22T09:52:56;22.20;91.80
39067;DHT22;24821;51.988;6.020;2022-07-22T09:55:24;22.20;92.40
39067;DHT22;24821;51.988;6.020;2022-07-22T09:57:52;22.20;92.40
39067;DHT22;24821;51.988;6.020;2022-07-22T10:00:24;22.10;92.00
39067;DHT22;24821;51.988;6.020;2022-07-22T10:02:52;22.20;92.20
39067;DHT22;24821;51.988;6.020;2022-07-22T10:05:21;22.30;92.20
39067;DHT22;24821;51.988;6.020;2022-07-22T10:07:49;22.30;91.90
39067;DHT22;24821;51.988;6.020;2022-07-22T10:10:17;22.40;92.50
39067;DHT22;24821;51.988;6.020;2022-07-22T10:12:44;22.50;92.30
39067;DHT22;24821;51.988;6.020;2022-07-22T10:15:11;22.60;92.40
39067;DHT22;24821;51.988;6.020;2022-07-22T10:17:40;22.60;91.80
39067;DHT22;24821;51.988;6.020;2022-07-22T10:20:07;22.70;91.50
39067;DHT22;24821;51.988;6.020;2022-07-22T10:25:08;23.10;91.10
39067;DHT22;24821;51.988;6.020;2022-07-22T10:27:44;23.20;91.50
39067;DHT22;24821;51.988;6.020;2022-07-22T10:30:10;23.40;91.30
39067;DHT22;24821;51.988;6.020;2022-07-22T10:32:37;23.40;90.10
39067;DHT22;24821;51.988;6.020;2022-07-22T10:40:20;23.70;89.80
39067;DHT22;24821;51.988;6.020;2022-07-22T10:43:03;23.80;88.10
39067;DHT22;24821;51.988;6.020;2022-07-22T10:45:50;23.80;86.80
39067;DHT22;24821;51.988;6.020;2022-07-22T10:49:02;23.80;87.70
39067;DHT22;24821;51.988;6.020;2022-07-22T10:51:15;23.90;88.90
39067;DHT22;24821;51.988;6.020;2022-07-22T10:53:54;23.90;87.30
39067;DHT22;24821;51.988;6.020;2022-07-22T10:56:35;23.60;88.20
39067;DHT22;24821;51.988;6.020;2022-07-22T10:59:12;23.60;87.00
39067;DHT22;24821;51.988;6.020;2022-07-22T11:01:46;23.50;87.80
39067;DHT22;24821;51.988;6.020;2022-07-22T11:06:37;23.40;88.70
39067;DHT22;24821;51.988;6.020;2022-07-22T11:09:09;23.40;88.50
39067;DHT22;24821;51.988;6.020;2022-07-22T11:11:44;23.50;88.00
39067;DHT22;24821;51.988;6.020;2022-07-22T11:14:37;23.70;88.10
39067;DHT22;24821;51.988;6.020;2022-07-22T11:17:10;23.80;87.20
39067;DHT22;24821;51.988;6.020;2022-07-22T11:19:37;23.90;86.30
39067;DHT22;24821;51.988;6.020;2022-07-22T11:22:10;23.90;86.00
39067;DHT22;24821;51.988;6.020;2022-07-22T11:24:37;23.90;86.00
39067;DHT22;24821;51.988;6.020;2022-07-22T11:27:04;24.10;83.20
39067;DHT22;24821;51.988;6.020;2022-07-22T11:29:36;24.10;83.10
39067;DHT22;24821;51.988;6.020;2022-07-22T11:32:06;24.20;85.10
39067;DHT22;24821;51.988;6.020;2022-07-22T11:34:32;24.30;83.60
39067;DHT22;24821;51.988;6.020;2022-07-22T11:36:58;24.40;81.20
39067;DHT22;24821;51.988;6.020;2022-07-22T11:39:28;24.40;82.20
39067;DHT22;24821;51.988;6.020;2022-07-22T11:41:56;24.50;83.10
39067;DHT22;24821;51.988;6.020;2022-07-22T11:44:24;24.50;83.60
39067;DHT22;24821;51.988;6.020;2022-07-22T11:46:50;24.50;81.90
39067;DHT22;24821;51.988;6.020;2022-07-22T11:49:18;24.50;82.10
39067;DHT22;24821;51.988;6.020;2022-07-22T11:51:44;24.40;80.50
39067;DHT22;24821;51.988;6.020;2022-07-22T11:54:10;24.30;80.00
39067;DHT22;24821;51.988;6.020;2022-07-22T11:56:36;24.10;81.60
39067;DHT22;24821;51.988;6.020;2022-07-22T11:59:03;24.10;81.90
39067;DHT22;24821;51.988;6.020;2022-07-22T12:01:36;24.00;84.00
39067;DHT22;24821;51.988;6.020;2022-07-22T12:04:05;24.00;83.10
39067;DHT22;24821;51.988;6.020;2022-07-22T12:06:32;24.10;80.60
39067;DHT22;24821;51.988;6.020;2022-07-22T12:09:20;24.10;81.50
39067;DHT22;24821;51.988;6.020;2022-07-22T12:11:49;24.10;82.00
39067;DHT22;24821;51.988;6.020;2022-07-22T12:14:19;24.10;81.50
39067;DHT22;24821;51.988;6.020;2022-07-22T12:17:04;24.00;82.60
39067;DHT22;24821;51.988;6.020;2022-07-22T12:19:32;23.90;82.70
39067;DHT22;24821;51.988;6.020;2022-07-22T12:22:07;23.90;83.20
39067;DHT22;24821;51.988;6.020;2022-07-22T12:24:40;23.90;83.60
39067;DHT22;24821;51.988;6.020;2022-07-22T12:27:09;24.10;83.30
39067;DHT22;24821;51.988;6.020;2022-07-22T12:32:26;24.60;82.80
39067;DHT22;24821;51.988;6.020;2022-07-22T12:37:30;25.00;80.00
39067;DHT22;24821;51.988;6.020;2022-07-22T12:40:18;25.00;79.00
39067;DHT22;24821;51.988;6.020;2022-07-22T12:42:46;25.10;78.90
39067;DHT22;24821;51.988;6.020;2022-07-22T12:45:17;24.90;79.40
39067;DHT22;24821;51.988;6.020;2022-07-22T12:47:48;24.90;79.20
39067;DHT22;24821;51.988;6.020;2022-07-22T12:50:31;24.90;79.10
39067;DHT22;24821;51.988;6.020;2022-07-22T12:52:59;24.90;79.10
39067;DHT22;24821;51.988;6.020;2022-07-22T12:55:26;24.80;79.60
39067;DHT22;24821;51.988;6.020;2022-07-22T12:57:51;24.70;78.40
39067;DHT22;24821;51.988;6.020;2022-07-22T13:00:22;24.60;78.20
39067;DHT22;24821;51.988;6.020;2022-07-22T13:02:49;24.60;78.30
39067;DHT22;24821;51.988;6.020;2022-07-22T13:05:15;24.80;77.90
39067;DHT22;24821;51.988;6.020;2022-07-22T13:07:41;24.90;77.70
39067;DHT22;24821;51.988;6.020;2022-07-22T13:10:07;25.00;78.30
39067;DHT22;24821;51.988;6.020;2022-07-22T13:12:33;25.10;76.90
39067;DHT22;24821;51.988;6.020;2022-07-22T13:14:59;25.00;75.70
39067;DHT22;24821;51.988;6.020;2022-07-22T13:17:24;25.00;76.20
39067;DHT22;24821;51.988;6.020;2022-07-22T13:19:50;24.80;75.30
39067;DHT22;24821;51.988;6.020;2022-07-22T13:22:15;24.70;76.70
39067;DHT22;24821;51.988;6.020;2022-07-22T13:24:41;24.70;78.50
39067;DHT22;24821;51.988;6.020;2022-07-22T13:27:06;24.70;79.80
39067;DHT22;24821;51.988;6.020;2022-07-22T13:29:32;24.70;80.90
39067;DHT22;24821;51.988;6.020;2022-07-22T13:31:57;24.80;81.00
39067;DHT22;24821;51.988;6.020;2022-07-22T13:34:23;24.90;81.30
39067;DHT22;24821;51.988;6.020;2022-07-22T13:36:49;24.80;81.30
39067;DHT22;24821;51.988;6.020;2022-07-22T13:39:15;24.80;81.30
39067;DHT22;24821;51.988;6.020;2022-07-22T13:41:40;24.80;81.10
39067;DHT22;24821;51.988;6.020;2022-07-22T13:44:06;24.70;80.90
39067;DHT22;24821;51.988;6.020;2022-07-22T13:46:34;24.70;81.50
39067;DHT22;24821;51.988;6.020;2022-07-22T13:49:00;24.70;80.80
39067;DHT22;24821;51.988;6.020;2022-07-22T13:51:25;24.50;81.40
39067;DHT22;24821;51.988;6.020;2022-07-22T13:53:51;24.50;82.40
39067;DHT22;24821;51.988;6.020;2022-07-22T13:56:16;24.50;81.70
39067;DHT22;24821;51.988;6.020;2022-07-22T13:58:42;24.50;82.30
39067;DHT22;24821;51.988;6.020;2022-07-22T14:01:08;24.50;82.40
39067;DHT22;24821;51.988;6.020;2022-07-22T14:03:37;24.50;81.30
39067;DHT22;24821;51.988;6.020;2022-07-22T14:06:04;24.50;82.00
39067;DHT22;24821;51.988;6.020;2022-07-22T14:08:29;24.50;81.80
39067;DHT22;24821;51.988;6.020;2022-07-22T14:10:55;24.50;82.20
39067;DHT22;24821;51.988;6.020;2022-07-22T14:13:21;24.40;81.60
39067;DHT22;24821;51.988;6.020;2022-07-22T14:15:46;24.30;81.20
39067;DHT22;24821;51.988;6.020;2022-07-22T14:18:12;24.30;80.20
39067;DHT22;24821;51.988;6.020;2022-07-22T14:20:38;24.20;81.10
39067;DHT22;24821;51.988;6.020;2022-07-22T14:23:05;24.20;82.00
39067;DHT22;24821;51.988;6.020;2022-07-22T14:25:31;24.20;82.40
39067;DHT22;24821;51.988;6.020;2022-07-22T14:27:57;24.20;82.20
39067;DHT22;24821;51.988;6.020;2022-07-22T14:30:23;24.30;82.40
39067;DHT22;24821;51.988;6.020;2022-07-22T14:32:49;24.30;82.50
39067;DHT22;24821;51.988;6.020;2022-07-22T14:35:15;24.30;80.80
39067;DHT22;24821;51.988;6.020;2022-07-22T14:37:40;24.20;81.50
39067;DHT22;24821;51.988;6.020;2022-07-22T14:40:06;24.20;81.40
39067;DHT22;24821;51.988;6.020;2022-07-22T14:42:32;24.30;80.10
39067;DHT22;24821;51.988;6.020;2022-07-22T14:44:57;24.30;81.50
39067;DHT22;24821;51.988;6.020;2022-07-22T14:47:23;24.50;82.00
39067;DHT22;24821;51.988;6.020;2022-07-22T14:49:48;24.60;80.90
39067;DHT22;24821;51.988;6.020;2022-07-22T14:52:14;24.70;81.80
39067;DHT22;24821;51.988;6.020;2022-07-22T14:54:40;24.80;80.80
39067;DHT22;24821;51.988;6.020;2022-07-22T14:57:05;24.80;80.80
39067;DHT22;24821;51.988;6.020;2022-07-22T14:59:31;24.90;80.20
39067;DHT22;24821;51.988;6.020;2022-07-22T15:01:56;24.80;80.10
39067;DHT22;24821;51.988;6.020;2022-07-22T15:04:22;24.80;81.30
39067;DHT22;24821;51.988;6.020;2022-07-22T15:06:47;24.80;80.70
39067;DHT22;24821;51.988;6.020;2022-07-22T15:09:13;24.80;81.50
39067;DHT22;24821;51.988;6.020;2022-07-22T15:11:38;24.90;80.40
39067;DHT22;24821;51.988;6.020;2022-07-22T15:14:04;24.90;79.90
39067;DHT22;24821;51.988;6.020;2022-07-22T15:16:29;24.90;79.70
39067;DHT22;24821;51.988;6.020;2022-07-22T15:18:55;25.10;80.70
39067;DHT22;24821;51.988;6.020;2022-07-22T15:21:20;25.20;78.70
39067;DHT22;24821;51.988;6.020;2022-07-22T15:23:47;25.20;79.20
39067;DHT22;24821;51.988;6.020;2022-07-22T15:26:13;25.10;79.30
39067;DHT22;24821;51.988;6.020;2022-07-22T15:28:39;25.10;79.40
39067;DHT22;24821;51.988;6.020;2022-07-22T15:31:05;25.10;79.30
39067;DHT22;24821;51.988;6.020;2022-07-22T15:33:31;25.10;78.70
39067;DHT22;24821;51.988;6.020;2022-07-22T15:35:57;25.00;79.10
39067;DHT22;24821;51.988;6.020;2022-07-22T15:38:23;24.90;79.20
39067;DHT22;24821;51.988;6.020;2022-07-22T15:40:48;24.80;78.70
39067;DHT22;24821;51.988;6.020;2022-07-22T15:43:14;24.70;78.80
39067;DHT22;24821;51.988;6.020;2022-07-22T15:45:39;24.70;79.20
39067;DHT22;24821;51.988;6.020;2022-07-22T15:48:05;24.60;80.00
39067;DHT22;24821;51.988;6.020;2022-07-22T15:50:31;24.50;80.30
39067;DHT22;24821;51.988;6.020;2022-07-22T15:52:57;24.40;81.50
39067;DHT22;24821;51.988;6.020;2022-07-22T15:55:23;24.30;79.50
39067;DHT22;24821;51.988;6.020;2022-07-22T15:57:49;24.20;79.70
39067;DHT22;24821;51.988;6.020;2022-07-22T16:00:34;24.10;80.50
39067;DHT22;24821;51.988;6.020;2022-07-22T16:02:59;24.10;80.90